Time;durP1;ratioP1;P1;durP2;ratioP2;P2;SDS_P1;SDS_P2;PMS_P1;PMS_P2;Temp;Humidity;BMP_temperature;BMP_pressure;BME280_temperature;BME280_humidity;BME280_pressure;Samples;Min_cycle;Max_cycle;Signal;HPM_P1;HPM_P2
2023/12/16 00:00:38;;;;;;;;;;;;;;;5.37;99.79;103411.22;5003212;28;19925;-80
2023/12/16 00:03:04;;;;;;;;;;;;;;;5.48;99.58;103407.84;5004096;28;19925;-80
2023/12/16 00:05:29;;;;;;;;;;;;;;;5.61;98.60;103399.88;5006535;28;19944;-80
2023/12/16 00:07:54;;;;;;;;;;;;;;;5.61;98.27;103400.75;5006637;28;19948;-80
2023/12/16 00:10:20;;;;;;;;;;;;;;;5.66;97.85;103399.56;4984567;28;19925;-80
2023/12/16 00:12:45;;;;;;;;;;;;;;;5.71;97.46;103392.13;4996827;28;20366;-80
2023/12/16 00:15:10;;;;;;;;;;;;;;;5.77;96.18;103391.72;4996109;28;19921;-80
2023/12/16 00:17:44;;;;;;;;;;;;;;;5.60;97.17;103391.03;4999623;28;19922;-80
2023/12/16 00:20:10;;;;;;;;;;;;;;;5.45;97.98;103394.72;5000390;28;19928;-80
2023/12/16 00:22:38;;;;;;;;;;;;;;;5.40;98.50;103402.16;5011249;28;19922;-80
2023/12/16 00:25:04;;;;;;;;;;;;;;;5.36;98.93;103398.84;4995961;28;19930;-80
2023/12/16 00:27:29;;;;;;;;;;;;;;;5.38;99.46;103396.94;4985220;28;19928;-81
2023/12/16 00:29:55;;;;;;;;;;;;;;;5.37;99.16;103399.69;4996448;28;19926;-80
2023/12/16 00:32:20;;;;;;;;;;;;;;;5.34;99.36;103405.22;4996177;28;19968;-80
2023/12/16 00:34:45;;;;;;;;;;;;;;;5.26;99.92;103398.56;4995738;28;19921;-80
2023/12/16 00:37:10;;;;;;;;;;;;;;;5.25;100.00;103404.88;5003306;28;19925;-81
2023/12/16 00:39:36;;;;;;;;;;;;;;;5.45;99.41;103389.38;5002540;28;19980;-81
2023/12/16 00:42:01;;;;;;;;;;;;;;;5.56;97.77;103394.84;5001855;28;19932;-80
2023/12/16 00:44:26;;;;;;;;;;;;;;;5.61;98.18;103391.88;4997811;28;20497;-80
2023/12/16 00:46:52;;;;;;;;;;;;;;;5.53;97.73;103395.03;5007792;28;20519;-81
2023/12/16 00:49:17;;;;;;;;;;;;;;;5.41;98.74;103395.84;4997140;28;19922;-80
2023/12/16 00:51:42;;;;;;;;;;;;;;;5.36;99.26;103397.97;5003318;28;19921;-80
2023/12/16 00:54:10;;;;;;;;;;;;;;;5.24;99.75;103403.16;5007689;28;19929;-80
2023/12/16 00:56:35;;;;;;;;;;;;;;;5.23;99.97;103401.44;5005304;28;19921;-80
2023/12/16 00:59:00;;;;;;;;;;;;;;;5.22;100.00;103410.41;5008537;28;19922;-80
2023/12/16 01:01:25;;;;;;;;;;;;;;;5.22;100.00;103402.38;5004708;28;20102;-80
2023/12/16 01:03:51;;;;;;;;;;;;;;;5.34;99.71;103410.56;5015876;28;19985;-80
2023/12/16 01:06:18;;;;;;;;;;;;;;;5.40;98.71;103407.50;5002249;28;19921;-81
2023/12/16 01:08:43;;;;;;;;;;;;;;;5.31;99.46;103412.47;4994995;28;19922;-80
2023/12/16 01:11:14;;;;;;;;;;;;;;;5.46;98.16;103404.44;4994940;28;20009;-80
2023/12/16 01:13:40;;;;;;;;;;;;;;;5.55;97.17;103406.50;5003894;28;19976;-80
2023/12/16 01:16:05;;;;;;;;;;;;;;;5.60;96.63;103406.19;5005780;28;19969;-80
2023/12/16 01:18:30;;;;;;;;;;;;;;;5.59;95.86;103399.13;4996984;28;20822;-80
2023/12/16 01:20:56;;;;;;;;;;;;;;;5.60;95.96;103384.81;5002613;28;19926;-80
2023/12/16 01:23:21;;;;;;;;;;;;;;;5.68;94.92;103398.53;4992940;28;19925;-80
2023/12/16 01:25:47;;;;;;;;;;;;;;;5.73;94.54;103406.25;5006031;28;19972;-80
2023/12/16 01:28:12;;;;;;;;;;;;;;;5.71;94.09;103403.69;5006540;28;19922;-80
2023/12/16 01:30:37;;;;;;;;;;;;;;;5.72;93.94;103408.06;5005188;28;20337;-80
2023/12/16 01:33:11;;;;;;;;;;;;;;;5.80;92.41;103412.03;4992165;28;20704;-80
2023/12/16 01:35:36;;;;;;;;;;;;;;;5.71;93.40;103408.16;5003056;28;20428;-80
2023/12/16 01:38:03;;;;;;;;;;;;;;;5.82;92.89;103405.66;5001777;28;19926;-80
2023/12/16 01:40:28;;;;;;;;;;;;;;;5.83;92.56;103404.66;4993140;28;20275;-80
2023/12/16 01:42:55;;;;;;;;;;;;;;;5.78;92.26;103398.78;5002581;28;19932;-80
2023/12/16 01:45:20;;;;;;;;;;;;;;;5.79;92.59;103392.47;5002495;28;19926;-80
2023/12/16 01:47:45;;;;;;;;;;;;;;;5.74;92.77;103394.59;5001844;28;20366;-80
2023/12/16 01:50:13;;;;;;;;;;;;;;;5.70;92.55;103395.75;4980130;28;20445;-79
2023/12/16 01:52:38;;;;;;;;;;;;;;;5.74;93.09;103394.59;5010170;28;19921;-80
2023/12/16 01:55:07;;;;;;;;;;;;;;;5.79;92.99;103384.47;4989107;28;19909;-80
2023/12/16 01:57:32;;;;;;;;;;;;;;;5.75;93.56;103393.63;5005182;28;20068;-80
2023/12/16 01:59:57;;;;;;;;;;;;;;;5.66;93.51;103391.56;4982792;28;19942;-80
2023/12/16 02:02:22;;;;;;;;;;;;;;;5.74;93.62;103382.06;4998821;28;19928;-80
2023/12/16 02:04:48;;;;;;;;;;;;;;;5.76;93.29;103380.16;4994829;28;19922;-80
2023/12/16 02:07:16;;;;;;;;;;;;;;;5.73;93.76;103390.19;4997391;28;19922;-80
2023/12/16 02:09:41;;;;;;;;;;;;;;;5.74;93.39;103389.25;4998459;28;19991;-80
2023/12/16 02:12:06;;;;;;;;;;;;;;;5.69;93.94;103397.56;5007512;28;20275;-80
2023/12/16 02:14:32;;;;;;;;;;;;;;;5.63;94.04;103387.28;4997174;28;20849;-80
2023/12/16 02:16:57;;;;;;;;;;;;;;;5.65;94.31;103387.19;4995112;28;19944;-79
2023/12/16 02:19:25;;;;;;;;;;;;;;;5.60;94.52;103388.34;5002778;28;19921;-79
2023/12/16 02:21:51;;;;;;;;;;;;;;;5.62;94.38;103385.56;4998730;28;19921;-80
2023/12/16 02:24:16;;;;;;;;;;;;;;;5.57;94.43;103380.53;5007057;28;19928;-80
2023/12/16 02:26:41;;;;;;;;;;;;;;;5.61;95.05;103391.88;5007052;28;19921;-80
2023/12/16 02:29:09;;;;;;;;;;;;;;;5.65;94.59;103385.38;5004842;28;19930;-80
2023/12/16 02:31:34;;;;;;;;;;;;;;;5.63;94.41;103389.13;4998275;28;19922;-80
2023/12/16 02:33:59;;;;;;;;;;;;;;;5.58;94.47;103379.56;4994699;28;19922;-80
2023/12/16 02:36:24;;;;;;;;;;;;;;;5.61;94.17;103382.06;4999265;28;19927;-80
2023/12/16 02:38:50;;;;;;;;;;;;;;;5.56;94.13;103381.50;5001566;28;20393;-80
2023/12/16 02:41:15;;;;;;;;;;;;;;;5.59;94.04;103381.28;5001290;28;19926;-80
2023/12/16 02:43:40;;;;;;;;;;;;;;;5.56;94.20;103383.31;4995545;28;19918;-80
2023/12/16 02:46:09;;;;;;;;;;;;;;;5.56;94.49;103383.31;5002616;28;19925;-80
2023/12/16 02:48:34;;;;;;;;;;;;;;;5.55;94.35;103381.59;5008848;28;19932;-80
2023/12/16 02:50:59;;;;;;;;;;;;;;;5.57;93.96;103379.66;4999050;28;19917;-80
2023/12/16 02:53:24;;;;;;;;;;;;;;;5.50;94.37;103373.88;4995571;28;19982;-80
2023/12/16 02:55:49;;;;;;;;;;;;;;;5.54;93.30;103379.88;4996011;28;19921;-80
2023/12/16 02:58:15;;;;;;;;;;;;;;;5.45;93.91;103376.00;4997309;28;20056;-80
2023/12/16 03:00:40;;;;;;;;;;;;;;;5.36;94.18;103371.25;4995646;28;19953;-80
2023/12/16 03:03:08;;;;;;;;;;;;;;;5.44;94.27;103369.78;4997555;28;19925;-80
2023/12/16 03:05:33;;;;;;;;;;;;;;;5.43;93.61;103361.88;5006471;28;19926;-80
2023/12/16 03:08:01;;;;;;;;;;;;;;;5.47;93.20;103363.41;4999034;28;19923;-80
2023/12/16 03:10:26;;;;;;;;;;;;;;;5.40;93.90;103360.25;4983370;28;20366;-80
2023/12/16 03:12:51;;;;;;;;;;;;;;;5.37;93.76;103351.59;5005825;23;19931;-78
2023/12/16 03:15:17;;;;;;;;;;;;;;;5.32;93.66;103343.88;5007482;28;20020;-77
2023/12/16 03:17:43;;;;;;;;;;;;;;;5.31;93.68;103344.84;5004063;28;19928;-78
2023/12/16 03:20:09;;;;;;;;;;;;;;;5.21;94.30;103341.03;5015416;28;20394;-79
2023/12/16 03:22:34;;;;;;;;;;;;;;;5.07;94.75;103344.63;5007546;28;19921;-80
2023/12/16 03:24:59;;;;;;;;;;;;;;;5.11;95.03;103348.81;5004627;28;19926;-79
2023/12/16 03:27:24;;;;;;;;;;;;;;;5.07;95.00;103347.28;5004265;28;19991;-80
2023/12/16 03:29:50;;;;;;;;;;;;;;;5.05;95.02;103343.88;5008305;28;19922;-79
2023/12/16 03:32:15;;;;;;;;;;;;;;;4.95;95.43;103352.44;5004386;28;19925;-79
2023/12/16 03:34:40;;;;;;;;;;;;;;;4.94;95.66;103350.72;5001816;28;20362;-80
2023/12/16 03:37:08;;;;;;;;;;;;;;;4.89;95.63;103352.84;5006472;28;20429;-80
2023/12/16 03:39:34;;;;;;;;;;;;;;;4.89;95.55;103358.19;4998230;28;19961;-80
2023/12/16 03:41:59;;;;;;;;;;;;;;;4.91;95.74;103356.28;5004851;28;19957;-79
2023/12/16 03:44:24;;;;;;;;;;;;;;;4.85;95.70;103356.66;4996721;28;19976;-79
2023/12/16 03:46:49;;;;;;;;;;;;;;;4.80;96.38;103348.09;5001347;28;19937;-79
2023/12/16 03:49:14;;;;;;;;;;;;;;;4.81;95.84;103348.00;5013578;23;19926;-79
2023/12/16 03:51:40;;;;;;;;;;;;;;;4.77;96.47;103342.94;5011150;28;19976;-79
2023/12/16 03:54:05;;;;;;;;;;;;;;;4.74;96.75;103345.81;5008160;28;19968;-80
2023/12/16 03:56:30;;;;;;;;;;;;;;;4.73;96.38;103346.78;5005664;28;19922;-79
2023/12/16 03:58:56;;;;;;;;;;;;;;;4.75;96.65;103342.22;5007242;28;19925;-80
2023/12/16 04:01:21;;;;;;;;;;;;;;;4.72;96.43;103345.06;4996253;28;19925;-79
2023/12/16 04:03:47;;;;;;;;;;;;;;;4.63;97.07;103346.50;5006693;28;19922;-79
2023/12/16 04:06:13;;;;;;;;;;;;;;;4.62;97.41;103350.94;5001929;28;20356;-79
2023/12/16 04:08:41;;;;;;;;;;;;;;;4.58;97.85;103368.13;5002192;28;20056;-79
2023/12/16 04:11:07;;;;;;;;;;;;;;;4.61;97.78;103367.91;5000613;28;20373;-79
2023/12/16 04:13:35;;;;;;;;;;;;;;;4.61;97.35;103377.75;4996522;28;19928;-79
2023/12/16 04:16:01;;;;;;;;;;;;;;;4.65;97.46;103374.78;4998197;28;19926;-78
2023/12/16 04:18:27;;;;;;;;;;;;;;;4.70;96.95;103372.69;5003096;28;19925;-79
2023/12/16 04:20:53;;;;;;;;;;;;;;;4.77;96.52;103370.50;4999738;28;19922;-78
2023/12/16 04:23:19;;;;;;;;;;;;;;;4.74;96.35;103375.19;5001816;28;19968;-79
2023/12/16 04:25:44;;;;;;;;;;;;;;;4.70;96.51;103374.50;4998186;28;19933;-79
2023/12/16 04:28:13;;;;;;;;;;;;;;;4.60;97.59;103379.53;4998257;28;19918;-79
2023/12/16 04:30:38;;;;;;;;;;;;;;;4.62;97.12;103377.63;5003265;28;19922;-79
2023/12/16 04:33:03;;;;;;;;;;;;;;;4.67;96.81;103372.88;5004303;28;20436;-79
2023/12/16 04:35:28;;;;;;;;;;;;;;;4.68;97.06;103355.03;5010821;28;20426;-79
2023/12/16 04:37:54;;;;;;;;;;;;;;;4.57;97.63;103373.53;4995698;28;20433;-79
2023/12/16 04:40:21;;;;;;;;;;;;;;;4.56;97.93;103364.69;5004330;28;20374;-79
2023/12/16 04:42:46;;;;;;;;;;;;;;;4.54;98.14;103366.59;4997264;28;20069;-80
2023/12/16 04:45:11;;;;;;;;;;;;;;;4.49;98.44;103366.00;5007221;28;20402;-80
2023/12/16 04:47:37;;;;;;;;;;;;;;;4.44;98.68;103368.97;5011499;28;19984;-80
2023/12/16 04:50:03;;;;;;;;;;;;;;;4.47;98.62;103368.78;5003757;28;20344;-79
2023/12/16 04:52:28;;;;;;;;;;;;;;;4.45;98.75;103364.47;5007234;28;19971;-79
2023/12/16 04:54:54;;;;;;;;;;;;;;;4.50;98.54;103367.72;4998357;28;19929;-80
2023/12/16 04:57:20;;;;;;;;;;;;;;;4.53;98.45;103363.06;5001168;28;19933;-80
2023/12/16 04:59:45;;;;;;;;;;;;;;;4.49;98.53;103376.69;5000808;28;19925;-80
2023/12/16 05:02:10;;;;;;;;;;;;;;;4.37;98.85;103368.50;5002073;28;19922;-80
2023/12/16 05:04:35;;;;;;;;;;;;;;;4.50;98.31;103360.56;5003864;28;20393;-79
2023/12/16 05:07:01;;;;;;;;;;;;;;;4.58;98.00;103369.91;5001902;28;19957;-80
2023/12/16 05:09:26;;;;;;;;;;;;;;;4.57;98.09;103371.75;4994609;28;19925;-80
2023/12/16 05:11:51;;;;;;;;;;;;;;;4.60;97.65;103379.53;5000317;28;19926;-80
2023/12/16 05:14:16;;;;;;;;;;;;;;;4.64;97.39;103374.88;4994935;28;19940;-79
2023/12/16 05:16:41;;;;;;;;;;;;;;;4.63;97.46;103363.34;5001161;28;19918;-80
2023/12/16 05:19:07;;;;;;;;;;;;;;;4.67;97.08;103359.53;4999095;28;19975;-80
2023/12/16 05:21:32;;;;;;;;;;;;;;;4.67;97.05;103348.88;5014971;28;19976;-79
2023/12/16 05:23:57;;;;;;;;;;;;;;;4.63;97.60;103351.81;5003516;28;19922;-79
2023/12/16 05:26:22;;;;;;;;;;;;;;;4.63;97.77;103355.34;5009586;28;19996;-79
2023/12/16 05:28:48;;;;;;;;;;;;;;;4.62;97.41;103345.63;5003749;28;19949;-80
2023/12/16 05:31:15;;;;;;;;;;;;;;;4.58;98.08;103354.78;4995546;28;19937;-79
2023/12/16 05:33:43;;;;;;;;;;;;;;;4.59;97.66;103360.97;5000980;28;19917;-80
2023/12/16 05:36:08;;;;;;;;;;;;;;;4.60;97.41;103344.00;5000472;28;19921;-80
2023/12/16 05:38:34;;;;;;;;;;;;;;;4.56;97.62;103343.34;4992167;28;20028;-79
2023/12/16 05:40:59;;;;;;;;;;;;;;;4.55;97.59;103352.31;5000950;28;20024;-79
2023/12/16 05:43:24;;;;;;;;;;;;;;;4.42;98.28;103346.00;4980046;28;19922;-80
2023/12/16 05:45:49;;;;;;;;;;;;;;;4.47;98.51;103354.56;4997844;28;20169;-79
2023/12/16 05:48:14;;;;;;;;;;;;;;;4.42;98.62;103359.31;4998958;28;20383;-79
2023/12/16 05:50:40;;;;;;;;;;;;;;;4.39;98.83;103350.59;4999287;28;19925;-80
2023/12/16 05:53:06;;;;;;;;;;;;;;;4.36;99.50;103353.44;4995616;28;19922;-82
2023/12/16 05:55:32;;;;;;;;;;;;;;;4.33;99.55;103361.63;4996878;28;20386;-79
2023/12/16 05:57:58;;;;;;;;;;;;;;;4.31;99.74;103355.53;5009615;28;20004;-82
2023/12/16 06:00:23;;;;;;;;;;;;;;;4.28;99.52;103358.38;5010551;28;19961;-81
2023/12/16 06:02:48;;;;;;;;;;;;;;;4.25;100.00;103355.88;5000609;28;19922;-81
2023/12/16 06:05:13;;;;;;;;;;;;;;;4.24;100.00;103356.84;4994881;28;19936;-80
2023/12/16 06:07:39;;;;;;;;;;;;;;;4.21;100.00;103360.56;5000089;28;19922;-81
2023/12/16 06:10:04;;;;;;;;;;;;;;;4.19;100.00;103361.59;5009416;28;19926;-82
2023/12/16 06:12:29;;;;;;;;;;;;;;;4.16;100.00;103359.97;4998108;28;19922;-80
2023/12/16 06:14:55;;;;;;;;;;;;;;;4.13;100.00;103364.63;5008940;23;19933;-79
2023/12/16 06:17:20;;;;;;;;;;;;;;;4.15;100.00;103373.41;4998873;28;19922;-80
2023/12/16 06:19:45;;;;;;;;;;;;;;;4.08;100.00;103371.09;4996883;28;20286;-81
2023/12/16 06:22:11;;;;;;;;;;;;;;;4.09;100.00;103379.97;5012427;28;20266;-81
2023/12/16 06:24:36;;;;;;;;;;;;;;;4.09;100.00;103378.13;4987773;28;20359;-80
2023/12/16 06:27:01;;;;;;;;;;;;;;;4.13;100.00;103391.28;4985513;28;20394;-80
2023/12/16 06:29:33;;;;;;;;;;;;;;;4.16;100.00;103383.13;4984872;28;19926;-80
2023/12/16 06:31:58;;;;;;;;;;;;;;;4.14;100.00;103382.34;4992325;28;19918;-80
2023/12/16 06:34:23;;;;;;;;;;;;;;;4.09;100.00;103380.81;4979990;28;19922;-80
2023/12/16 06:36:49;;;;;;;;;;;;;;;4.03;100.00;103386.53;4981912;28;19928;-80
2023/12/16 06:39:14;;;;;;;;;;;;;;;4.03;100.00;103390.97;4978814;28;20370;-80
2023/12/16 06:41:39;;;;;;;;;;;;;;;4.05;100.00;103389.06;4990954;28;20437;-80
2023/12/16 06:44:04;;;;;;;;;;;;;;;4.13;100.00;103388.63;4993077;28;20333;-80
2023/12/16 06:46:30;;;;;;;;;;;;;;;4.16;100.00;103375.13;4985631;28;19929;-80
2023/12/16 06:48:55;;;;;;;;;;;;;;;4.14;100.00;103380.56;4977872;28;19925;-80
2023/12/16 06:51:20;;;;;;;;;;;;;;;4.09;100.00;103391.47;4998415;28;19926;-80
2023/12/16 06:53:45;;;;;;;;;;;;;;;4.05;100.00;103391.75;5002076;28;20356;-81
2023/12/16 06:56:11;;;;;;;;;;;;;;;4.06;100.00;103394.31;5003312;28;19929;-80
2023/12/16 06:58:43;;;;;;;;;;;;;;;4.03;100.00;103397.19;4985132;28;19969;-80
2023/12/16 07:01:14;;;;;;;;;;;;;;;4.08;100.00;103394.22;4985410;28;20488;-80
2023/12/16 07:03:39;;;;;;;;;;;;;;;4.10;100.00;103390.53;4984076;28;19937;-80
2023/12/16 07:06:08;;;;;;;;;;;;;;;4.16;100.00;103383.97;4981901;28;20176;-80
2023/12/16 07:08:37;;;;;;;;;;;;;;;4.19;100.00;103381.13;4987020;28;20013;-80
2023/12/16 07:11:05;;;;;;;;;;;;;;;4.20;100.00;103390.81;4988221;28;20405;-81
2023/12/16 07:13:30;;;;;;;;;;;;;;;4.16;100.00;103391.94;4988923;28;20408;-81
2023/12/16 07:29:35;;;;;;;;;;;;;;;4.15;100.00;103400.06;4996553;28;20277;-78
2023/12/16 07:32:12;;;;;;;;;;;;;;;4.18;100.00;103395.38;4997107;28;19981;-77
2023/12/16 07:34:50;;;;;;;;;;;;;;;4.17;100.00;103404.34;4995982;28;20370;-78
2023/12/16 07:37:15;;;;;;;;;;;;;;;4.23;100.00;103395.13;4999869;28;19926;-80
2023/12/16 07:39:40;;;;;;;;;;;;;;;4.24;100.00;103399.50;4997979;28;19945;-81
2023/12/16 07:42:05;;;;;;;;;;;;;;;4.27;100.00;103415.31;5002358;28;19922;-80
2023/12/16 07:44:31;;;;;;;;;;;;;;;4.30;100.00;103414.28;4997346;28;19929;-79
2023/12/16 07:46:56;;;;;;;;;;;;;;;4.28;100.00;103417.03;5000895;28;19968;-79
2023/12/16 07:49:25;;;;;;;;;;;;;;;4.29;100.00;103418.75;5009189;28;19987;-79
2023/12/16 07:51:50;;;;;;;;;;;;;;;4.35;100.00;103406.84;5009188;28;19921;-79
2023/12/16 07:54:15;;;;;;;;;;;;;;;4.42;100.00;103410.00;5000499;28;19922;-80
2023/12/16 07:56:41;;;;;;;;;;;;;;;4.42;100.00;103402.00;5003718;28;19922;-81
2023/12/16 07:59:06;;;;;;;;;;;;;;;4.35;100.00;103399.72;5005856;28;19928;-81
2023/12/16 08:01:31;;;;;;;;;;;;;;;4.45;100.00;103413.38;4993761;28;19926;-79
2023/12/16 08:03:56;;;;;;;;;;;;;;;4.46;100.00;103408.88;5001475;28;19937;-79
2023/12/16 08:06:24;;;;;;;;;;;;;;;4.47;100.00;103410.59;5003547;28;20397;-79
2023/12/16 08:08:49;;;;;;;;;;;;;;;4.48;100.00;103412.31;4997787;28;19922;-79
2023/12/16 08:11:14;;;;;;;;;;;;;;;4.50;100.00;103423.75;5000179;28;19929;-80
2023/12/16 08:13:39;;;;;;;;;;;;;;;4.52;100.00;103417.34;5003429;28;20433;-80
2023/12/16 08:16:05;;;;;;;;;;;;;;;4.47;100.00;103422.13;4998209;28;20352;-79
2023/12/16 08:18:33;;;;;;;;;;;;;;;4.49;100.00;103430.03;5010563;28;19921;-79
2023/12/16 08:20:58;;;;;;;;;;;;;;;4.52;100.00;103417.34;5001085;28;19929;-79
2023/12/16 08:23:26;;;;;;;;;;;;;;;4.53;100.00;103418.22;5001035;28;19922;-79
2023/12/16 08:25:54;;;;;;;;;;;;;;;4.55;100.00;103419.84;4995650;28;20024;-79
2023/12/16 08:28:19;;;;;;;;;;;;;;;4.59;100.00;103420.50;4996942;28;20571;-79
2023/12/16 08:30:49;;;;;;;;;;;;;;;4.60;100.00;103424.03;4998433;28;20013;-79
2023/12/16 08:33:14;;;;;;;;;;;;;;;4.69;100.00;103421.69;4997829;28;19933;-79
2023/12/16 08:35:42;;;;;;;;;;;;;;;4.82;100.00;103420.91;5009627;28;19921;-78
2023/12/16 08:38:07;;;;;;;;;;;;;;;4.93;100.00;103425.59;4996783;28;19926;-79
2023/12/16 08:40:32;;;;;;;;;;;;;;;4.97;100.00;103427.97;4996204;28;19932;-78
2023/12/16 08:42:57;;;;;;;;;;;;;;;4.97;100.00;103425.28;5004468;28;19922;-79
2023/12/16 08:45:23;;;;;;;;;;;;;;;5.00;100.00;103411.75;4997640;28;19922;-78
2023/12/16 08:47:48;;;;;;;;;;;;;;;5.01;100.00;103425.97;5003920;28;20016;-79
2023/12/16 08:50:13;;;;;;;;;;;;;;;5.00;100.00;103411.75;4998577;28;19972;-78
2023/12/16 08:52:38;;;;;;;;;;;;;;;4.98;100.00;103410.97;4999958;28;19921;-79
2023/12/16 08:55:06;;;;;;;;;;;;;;;4.99;100.00;103396.69;5001611;28;19975;-79
2023/12/16 08:57:32;;;;;;;;;;;;;;;5.18;100.00;103424.91;5001358;28;20349;-80
2023/12/16 08:59:57;;;;;;;;;;;;;;;5.24;100.00;103427.19;5004858;28;20000;-79
2023/12/16 09:02:22;;;;;;;;;;;;;;;5.41;99.18;103425.25;4999938;28;19922;-79
2023/12/16 09:04:48;;;;;;;;;;;;;;;5.58;98.07;103435.69;5006163;28;19933;-79
2023/12/16 09:07:13;;;;;;;;;;;;;;;5.69;97.34;103442.13;5016913;28;19909;-77
2023/12/16 09:09:38;;;;;;;;;;;;;;;5.74;97.55;103445.38;5022988;28;19925;-77
2023/12/16 09:12:33;;;;;;;;;;;;;;;5.80;96.29;103438.75;5003314;28;20587;-78
2023/12/16 09:14:58;;;;;;;;;;;;;;;5.82;96.50;103445.75;4981688;28;19961;-77
2023/12/16 09:17:23;;;;;;;;;;;;;;;5.78;96.93;103449.56;4995457;28;20275;-78
2023/12/16 09:19:49;;;;;;;;;;;;;;;5.89;97.00;103449.72;5001553;28;20365;-78
2023/12/16 09:22:19;;;;;;;;;;;;;;;5.75;97.10;103447.94;5004084;28;20289;-79
2023/12/16 09:24:46;;;;;;;;;;;;;;;5.81;96.45;103457.41;5007906;28;19925;-79
2023/12/16 09:27:11;;;;;;;;;;;;;;;5.98;96.61;103458.94;4995654;28;19929;-78
2023/12/16 09:29:36;;;;;;;;;;;;;;;5.96;96.11;103454.66;4992401;28;19980;-78
2023/12/16 09:32:02;;;;;;;;;;;;;;;6.11;95.95;103461.69;5002412;28;19929;-78
2023/12/16 09:34:27;;;;;;;;;;;;;;;6.00;97.11;103472.25;4997055;28;19984;-78
2023/12/16 09:36:52;;;;;;;;;;;;;;;5.97;97.52;103465.25;4998387;28;19927;-78
2023/12/16 09:39:22;;;;;;;;;;;;;;;5.99;97.43;103473.19;5006311;28;20017;-78
2023/12/16 09:41:48;;;;;;;;;;;;;;;6.11;97.25;103477.72;4996425;28;19945;-78
2023/12/16 09:44:13;;;;;;;;;;;;;;;6.10;97.45;103468.00;4991634;28;19929;-78
2023/12/16 09:46:39;;;;;;;;;;;;;;;6.25;97.63;103481.28;4992092;28;19942;-78
2023/12/16 09:49:04;;;;;;;;;;;;;;;6.18;98.67;103484.38;4981119;28;19921;-79
2023/12/16 09:51:29;;;;;;;;;;;;;;;6.26;97.95;103485.69;4990922;28;19934;-79
2023/12/16 09:53:54;;;;;;;;;;;;;;;6.21;98.71;103478.81;5001458;28;19929;-79
2023/12/16 09:56:22;;;;;;;;;;;;;;;6.12;99.96;103482.13;5002763;28;19925;-78
2023/12/16 09:58:48;;;;;;;;;;;;;;;6.29;100.00;103483.66;5004957;28;19925;-79
2023/12/16 10:01:14;;;;;;;;;;;;;;;6.34;100.00;103486.03;5005189;28;19949;-78
2023/12/16 10:03:39;;;;;;;;;;;;;;;6.37;100.00;103483.13;4997622;28;19948;-78
2023/12/16 10:06:08;;;;;;;;;;;;;;;6.43;99.83;103490.75;4999661;28;19928;-79
2023/12/16 10:08:34;;;;;;;;;;;;;;;6.27;100.00;103484.72;5006121;28;20435;-79
2023/12/16 10:10:59;;;;;;;;;;;;;;;6.44;100.00;103480.94;4992406;28;19925;-79
2023/12/16 10:13:25;;;;;;;;;;;;;;;6.40;100.00;103487.44;4992948;28;19945;-79
2023/12/16 10:15:50;;;;;;;;;;;;;;;6.54;100.00;103487.34;4993884;28;19925;-79
2023/12/16 10:18:18;;;;;;;;;;;;;;;6.57;100.00;103494.31;5007011;28;19922;-81
2023/12/16 10:20:44;;;;;;;;;;;;;;;6.34;100.00;103491.41;4996577;28;19976;-79
2023/12/16 10:23:12;;;;;;;;;;;;;;;6.48;100.00;103496.66;4992213;28;19921;-79
2023/12/16 10:25:37;;;;;;;;;;;;;;;6.22;100.00;103488.56;4997113;28;19922;-79
2023/12/16 10:28:03;;;;;;;;;;;;;;;6.40;100.00;103480.25;4975741;28;19926;-79
2023/12/16 10:30:31;;;;;;;;;;;;;;;6.46;100.00;103474.50;5002133;28;19924;-79
2023/12/16 10:32:56;;;;;;;;;;;;;;;6.58;100.00;103482.63;4996819;28;19932;-78
2023/12/16 10:35:23;;;;;;;;;;;;;;;6.41;100.00;103491.84;4997838;28;20020;-79
2023/12/16 10:37:49;;;;;;;;;;;;;;;6.20;100.00;103490.47;5001580;28;19918;-79
2023/12/16 10:40:14;;;;;;;;;;;;;;;6.32;100.00;103498.66;5000932;28;19922;-79
2023/12/16 10:42:40;;;;;;;;;;;;;;;6.30;100.00;103480.03;5002041;28;20049;-79
2023/12/16 10:45:05;;;;;;;;;;;;;;;6.37;100.00;103475.09;4999124;28;20309;-78
2023/12/16 10:47:30;;;;;;;;;;;;;;;6.46;100.00;103479.84;4975214;28;19983;-79
2023/12/16 10:49:57;;;;;;;;;;;;;;;6.45;100.00;103472.78;4989157;28;19921;-79
2023/12/16 10:52:22;;;;;;;;;;;;;;;6.44;100.00;103475.56;4977532;28;19972;-79
2023/12/16 10:54:48;;;;;;;;;;;;;;;6.36;100.00;103473.41;4976422;28;19942;-79
2023/12/16 10:57:16;;;;;;;;;;;;;;;6.39;100.00;103475.03;4974372;28;19925;-79
2023/12/16 10:59:43;;;;;;;;;;;;;;;6.22;100.00;103477.88;4991234;28;19961;-79
2023/12/16 11:02:13;;;;;;;;;;;;;;;6.22;100.00;103475.19;4998338;28;20032;-79
2023/12/16 11:04:38;;;;;;;;;;;;;;;6.36;100.00;103462.69;4974860;28;19961;-79
2023/12/16 11:07:07;;;;;;;;;;;;;;;6.29;100.00;103474.78;4999392;28;20024;-80
2023/12/16 11:09:33;;;;;;;;;;;;;;;6.39;100.00;103473.19;4972408;28;20040;-78
2023/12/16 11:12:00;;;;;;;;;;;;;;;6.22;100.00;103477.03;4979248;28;20045;-78
2023/12/16 11:14:25;;;;;;;;;;;;;;;6.29;100.00;103477.47;5002203;28;20398;-79
2023/12/16 11:16:53;;;;;;;;;;;;;;;6.18;100.00;103456.78;4996931;28;20102;-78
2023/12/16 11:19:19;;;;;;;;;;;;;;;6.35;100.00;103453.81;4996687;28;19939;-79
2023/12/16 11:21:44;;;;;;;;;;;;;;;6.31;100.00;103456.81;5001412;28;20440;-80
2023/12/16 11:24:13;;;;;;;;;;;;;;;6.33;100.00;103452.22;4981565;28;19936;-79
2023/12/16 11:26:38;;;;;;;;;;;;;;;6.45;100.00;103443.34;4922726;28;1746270;-80
2023/12/16 11:29:03;;;;;;;;;;;;;;;6.56;100.00;103436.38;4991447;28;20404;-79
2023/12/16 11:31:31;;;;;;;;;;;;;;;6.32;100.00;103434.47;4991081;28;20565;-79
2023/12/16 11:33:57;;;;;;;;;;;;;;;6.32;100.00;103439.81;4998143;28;19961;-79
2023/12/16 11:36:42;;;;;;;;;;;;;;;6.31;100.00;103430.91;4985830;28;19976;-78
2023/12/16 11:39:27;;;;;;;;;;;;;;;6.28;100.00;103430.28;4980381;28;19996;-78
2023/12/16 11:41:52;;;;;;;;;;;;;;;6.46;100.00;103433.47;4999370;28;19929;-79
2023/12/16 11:44:18;;;;;;;;;;;;;;;6.45;100.00;103419.25;5000720;28;19983;-79
2023/12/16 11:46:43;;;;;;;;;;;;;;;6.35;100.00;103402.16;5007850;28;19925;-79
2023/12/16 11:49:10;;;;;;;;;;;;;;;6.25;100.00;103409.94;5005499;28;19944;-79
2023/12/16 11:51:37;;;;;;;;;;;;;;;6.47;100.00;103403.09;4997863;28;19926;-80
2023/12/16 11:54:03;;;;;;;;;;;;;;;6.50;100.00;103397.53;4999901;28;20008;-79
2023/12/16 11:56:28;;;;;;;;;;;;;;;6.49;100.00;103388.66;4999724;28;20701;-79
2023/12/16 11:58:59;;;;;;;;;;;;;;;6.46;100.00;103388.88;5003414;28;20020;-80
2023/12/16 12:01:25;;;;;;;;;;;;;;;6.56;100.00;103393.56;5004548;28;19922;-79
2023/12/16 12:03:53;;;;;;;;;;;;;;;6.51;100.00;103392.09;5008496;28;19929;-78
2023/12/16 12:06:18;;;;;;;;;;;;;;;6.55;100.00;103389.16;4996363;28;19921;-78
2023/12/16 12:08:44;;;;;;;;;;;;;;;6.63;100.00;103386.81;5001128;28;19917;-79
2023/12/16 12:11:10;;;;;;;;;;;;;;;6.72;100.00;103382.66;4997353;28;19922;-79
2023/12/16 12:13:35;;;;;;;;;;;;;;;6.64;100.00;103388.53;5002974;28;19983;-78
2023/12/16 12:16:00;;;;;;;;;;;;;;;6.68;100.00;103372.16;5001358;28;19922;-78
2023/12/16 12:18:28;;;;;;;;;;;;;;;6.72;100.00;103371.94;4994293;28;19932;-78
2023/12/16 12:20:54;;;;;;;;;;;;;;;6.61;100.00;103364.66;4993445;28;19917;-78
2023/12/16 12:23:23;;;;;;;;;;;;;;;6.60;100.00;103358.47;4979180;28;19980;-78
2023/12/16 12:25:55;;;;;;;;;;;;;;;6.56;100.00;103356.97;4977027;28;19964;-78
2023/12/16 12:28:20;;;;;;;;;;;;;;;6.57;100.00;103361.34;5003837;28;19925;-77
2023/12/16 12:30:49;;;;;;;;;;;;;;;6.68;100.00;103356.09;5005459;28;19968;-78
2023/12/16 12:33:14;;;;;;;;;;;;;;;6.58;100.00;103355.03;4985914;28;19922;-78
2023/12/16 12:35:39;;;;;;;;;;;;;;;6.55;100.00;103354.38;4997500;28;20305;-78
2023/12/16 12:38:07;;;;;;;;;;;;;;;6.63;100.00;103355.56;5003130;28;20339;-79
2023/12/16 12:40:33;;;;;;;;;;;;;;;6.58;100.00;103351.50;4975416;28;19929;-78
2023/12/16 12:42:58;;;;;;;;;;;;;;;6.62;100.00;103353.00;4995145;28;19968;-79
2023/12/16 12:45:34;;;;;;;;;;;;;;;6.65;100.00;103344.75;5010940;28;20317;-78
2023/12/16 12:48:20;;;;;;;;;;;;;;;6.64;100.00;103341.22;4997251;28;19925;-78
2023/12/16 12:50:46;;;;;;;;;;;;;;;6.66;100.00;103341.97;4998551;28;19965;-77